Time;durP1;ratioP1;P1;durP2;ratioP2;P2;SDS_P1;SDS_P2;PMS_P1;PMS_P2;Temp;Humidity;BMP_temperature;BMP_pressure;BME280_temperature;BME280_humidity;BME280_pressure;Samples;Min_cycle;Max_cycle;Signal;HPM_P1;HPM_P2
2021/07/26 00:02:24;;;;;;;;;;;24.90;69.50;;;;;;5133060;27;19931;-55
2021/07/26 00:04:52;;;;;;;;;;;24.90;69.50;;;;;;5134715;27;19976;-54
2021/07/26 00:07:19;;;;;;;;;;;24.90;69.40;;;;;;5134525;27;19924;-54
2021/07/26 00:09:46;;;;;;;;;;;24.90;69.40;;;;;;5117287;27;19974;-55
2021/07/26 00:12:13;;;;;;;;;;;24.90;70.20;;;;;;5135412;27;20395;-52
2021/07/26 00:14:40;;;;;;;;;;;24.90;69.40;;;;;;5135350;27;19924;-53
2021/07/26 00:17:07;;;;;;;;;;;24.90;69.30;;;;;;5135325;27;19967;-54
2021/07/26 00:19:34;;;;;;;;;;;24.90;69.30;;;;;;5134004;27;19982;-55
2021/07/26 00:22:01;;;;;;;;;;;24.90;69.30;;;;;;5135475;27;19950;-51
2021/07/26 00:24:28;;;;;;;;;;;24.90;69.30;;;;;;5116521;27;20013;-55
2021/07/26 00:26:56;;;;;;;;;;;24.90;69.20;;;;;;5117199;27;20392;-55
2021/07/26 00:29:22;;;;;;;;;;;24.90;69.20;;;;;;5133968;27;19923;-52
2021/07/26 00:31:49;;;;;;;;;;;24.90;69.30;;;;;;5135116;27;20024;-53
2021/07/26 00:34:19;;;;;;;;;;;24.90;69.40;;;;;;5134736;27;20431;-55
2021/07/26 00:36:46;;;;;;;;;;;24.90;69.40;;;;;;5120395;27;20010;-52
2021/07/26 00:39:14;;;;;;;;;;;24.90;69.50;;;;;;5116670;27;19931;-54
2021/07/26 00:41:42;;;;;;;;;;;24.90;69.50;;;;;;5117602;27;19936;-51
2021/07/26 00:44:09;;;;;;;;;;;24.90;69.40;;;;;;5116833;27;19931;-52
2021/07/26 00:46:36;;;;;;;;;;;24.90;69.40;;;;;;5129334;27;19972;-55
2021/07/26 00:49:06;;;;;;;;;;;24.90;69.30;;;;;;5133422;27;19939;-52
2021/07/26 00:51:34;;;;;;;;;;;24.90;69.30;;;;;;5133499;27;19970;-51
2021/07/26 00:54:01;;;;;;;;;;;24.90;69.30;;;;;;5132777;27;19927;-54
2021/07/26 00:56:28;;;;;;;;;;;24.90;69.30;;;;;;5134754;27;19923;-53
2021/07/26 00:58:55;;;;;;;;;;;24.80;69.30;;;;;;5114976;27;19989;-53
2021/07/26 01:01:25;;;;;;;;;;;24.80;69.30;;;;;;5132123;27;20022;-52
2021/07/26 01:03:52;;;;;;;;;;;24.80;69.30;;;;;;5134343;27;19923;-54
2021/07/26 01:06:20;;;;;;;;;;;24.80;69.30;;;;;;5132378;27;19968;-51
2021/07/26 01:08:47;;;;;;;;;;;24.80;69.30;;;;;;5134116;27;19923;-53
2021/07/26 01:11:15;;;;;;;;;;;24.80;69.30;;;;;;5133462;27;19924;-54
2021/07/26 01:13:42;;;;;;;;;;;24.80;69.30;;;;;;5111713;28;20431;-51
2021/07/26 01:16:10;;;;;;;;;;;24.80;70.10;;;;;;5120404;27;19923;-53
2021/07/26 01:18:37;;;;;;;;;;;24.80;69.30;;;;;;5131796;27;20390;-50
2021/07/26 01:21:05;;;;;;;;;;;24.80;69.30;;;;;;5118865;27;19962;-52
2021/07/26 01:23:33;;;;;;;;;;;24.80;69.30;;;;;;5132539;27;19998;-50
2021/07/26 01:26:01;;;;;;;;;;;24.80;69.30;;;;;;5132925;27;19924;-53
2021/07/26 01:28:30;;;;;;;;;;;24.80;69.30;;;;;;5096472;28;20411;-55
2021/07/26 01:30:57;;;;;;;;;;;24.80;69.30;;;;;;5132389;27;19930;-51
2021/07/26 01:33:24;;;;;;;;;;;24.80;69.30;;;;;;5133883;27;20263;-51
2021/07/26 01:35:52;;;;;;;;;;;24.80;69.20;;;;;;5115436;27;20015;-53
2021/07/26 01:38:19;;;;;;;;;;;24.80;69.20;;;;;;5133049;27;20011;-55
2021/07/26 01:40:50;;;;;;;;;;;24.80;70.00;;;;;;5133672;27;19930;-53
2021/07/26 01:43:17;;;;;;;;;;;24.80;69.30;;;;;;5132729;27;19963;-53
2021/07/26 01:46:08;;;;;;;;;;;24.80;69.30;;;;;;5131080;27;19930;-48
2021/07/26 01:48:39;;;;;;;;;;;24.80;69.30;;;;;;5123922;27;20401;-54
2021/07/26 01:51:10;;;;;;;;;;;24.80;70.10;;;;;;5133968;27;20333;-50
2021/07/26 01:53:41;;;;;;;;;;;24.80;69.30;;;;;;5130955;27;19973;-54
2021/07/26 01:56:08;;;;;;;;;;;24.80;69.30;;;;;;5133264;27;19930;-55
2021/07/26 01:58:35;;;;;;;;;;;24.80;69.40;;;;;;5133747;27;19970;-51
2021/07/26 02:01:02;;;;;;;;;;;24.80;69.40;;;;;;5133578;27;19924;-51
2021/07/26 02:03:29;;;;;;;;;;;24.80;69.40;;;;;;5133377;28;19923;-53
2021/07/26 02:05:56;;;;;;;;;;;24.80;69.40;;;;;;5132218;28;20378;-54
2021/07/26 02:08:23;;;;;;;;;;;24.80;69.40;;;;;;5133437;28;19967;-52
2021/07/26 02:10:50;;;;;;;;;;;24.80;69.30;;;;;;5131805;28;19973;-53
2021/07/26 02:13:17;;;;;;;;;;;24.70;69.20;;;;;;5124382;28;20022;-50
2021/07/26 02:15:44;;;;;;;;;;;24.80;69.10;;;;;;5124303;28;19934;-53
2021/07/26 02:18:11;;;;;;;;;;;24.80;69.10;;;;;;5125222;28;19924;-49
2021/07/26 02:20:38;;;;;;;;;;;24.70;69.00;;;;;;5119498;28;19973;-52
2021/07/26 02:23:05;;;;;;;;;;;24.70;68.90;;;;;;5135046;27;20378;-54
2021/07/26 02:25:32;;;;;;;;;;;24.70;68.90;;;;;;5135146;27;19923;-51
2021/07/26 02:27:59;;;;;;;;;;;24.70;68.90;;;;;;5134254;27;20450;-51
2021/07/26 02:30:26;;;;;;;;;;;24.70;68.80;;;;;;5103755;27;20018;-52
2021/07/26 02:32:53;;;;;;;;;;;24.70;68.80;;;;;;5137239;27;19972;-53
2021/07/26 02:35:20;;;;;;;;;;;24.80;68.80;;;;;;5134519;27;20367;-55
2021/07/26 02:37:47;;;;;;;;;;;24.70;68.60;;;;;;5119724;27;19924;-54
2021/07/26 02:40:14;;;;;;;;;;;24.70;68.70;;;;;;5137452;27;19927;-52
2021/07/26 02:42:41;;;;;;;;;;;24.70;68.70;;;;;;5136569;27;19924;-52
2021/07/26 02:45:08;;;;;;;;;;;24.70;68.70;;;;;;5136316;27;19924;-53
2021/07/26 02:47:35;;;;;;;;;;;24.70;68.70;;;;;;5134485;27;19923;-51
2021/07/26 02:50:02;;;;;;;;;;;24.70;68.80;;;;;;5137134;27;19930;-52
2021/07/26 02:52:29;;;;;;;;;;;24.70;68.80;;;;;;5135863;27;19949;-57
2021/07/26 02:54:56;;;;;;;;;;;24.70;68.80;;;;;;5123069;27;20379;-56
2021/07/26 02:57:23;;;;;;;;;;;24.70;68.80;;;;;;5130607;27;19924;-53
2021/07/26 02:59:50;;;;;;;;;;;24.70;68.80;;;;;;5135706;27;19931;-54
2021/07/26 03:02:17;;;;;;;;;;;24.70;68.80;;;;;;5136659;27;20416;-55
2021/07/26 03:04:44;;;;;;;;;;;24.70;68.80;;;;;;5135244;27;19927;-55
2021/07/26 03:07:11;;;;;;;;;;;24.60;68.80;;;;;;5137009;27;20310;-55
2021/07/26 03:09:38;;;;;;;;;;;24.60;68.80;;;;;;5136812;27;20299;-56
2021/07/26 03:12:05;;;;;;;;;;;24.70;69.00;;;;;;5128230;27;19924;-55
2021/07/26 03:14:32;;;;;;;;;;;24.60;68.80;;;;;;5124494;27;20287;-54
2021/07/26 03:17:03;;;;;;;;;;;24.70;68.90;;;;;;5134643;27;19924;-56
2021/07/26 03:19:31;;;;;;;;;;;24.70;68.80;;;;;;5134736;27;19932;-55
2021/07/26 03:22:19;;;;;;;;;;;24.70;68.80;;;;;;5133979;27;19923;-55
2021/07/26 03:24:47;;;;;;;;;;;24.70;68.80;;;;;;5135239;27;19923;-54
2021/07/26 03:27:14;;;;;;;;;;;24.70;68.90;;;;;;5115686;27;20022;-53
2021/07/26 03:29:41;;;;;;;;;;;24.60;68.90;;;;;;5133961;27;19972;-52
2021/07/26 03:32:08;;;;;;;;;;;24.70;69.00;;;;;;5133635;27;19923;-54
2021/07/26 03:34:35;;;;;;;;;;;24.70;69.00;;;;;;5135682;27;19932;-54
2021/07/26 03:37:02;;;;;;;;;;;24.70;69.00;;;;;;5120799;27;19924;-53
2021/07/26 03:39:29;;;;;;;;;;;24.70;69.00;;;;;;5135172;27;19924;-49
2021/07/26 03:41:59;;;;;;;;;;;24.70;69.00;;;;;;5098712;27;19924;-54
2021/07/26 03:44:25;;;;;;;;;;;24.70;69.00;;;;;;5135616;27;19927;-54
2021/07/26 03:46:52;;;;;;;;;;;24.70;68.90;;;;;;5136047;27;19987;-53
2021/07/26 03:49:19;;;;;;;;;;;24.70;68.90;;;;;;5118249;27;20315;-50
2021/07/26 03:51:46;;;;;;;;;;;24.70;68.90;;;;;;5133871;27;19923;-51
2021/07/26 03:54:13;;;;;;;;;;;24.70;68.90;;;;;;5134091;27;19924;-52
2021/07/26 03:56:40;;;;;;;;;;;24.70;68.80;;;;;;5136070;27;19953;-52
2021/07/26 03:59:07;;;;;;;;;;;24.70;68.70;;;;;;5117224;27;20367;-56
2021/07/26 04:01:34;;;;;;;;;;;24.70;68.60;;;;;;5133587;27;20401;-51
2021/07/26 04:04:01;;;;;;;;;;;24.70;68.70;;;;;;5122393;27;19963;-54
2021/07/26 04:06:28;;;;;;;;;;;24.70;68.70;;;;;;5128873;27;19923;-55
2021/07/26 04:08:55;;;;;;;;;;;24.70;68.70;;;;;;5135486;27;20588;-54
2021/07/26 04:14:01;;;;;;;;;;;24.70;68.70;;;;;;5133064;27;19962;-54
2021/07/26 04:16:28;;;;;;;;;;;24.70;68.60;;;;;;5132718;27;20282;-51
2021/07/26 04:18:56;;;;;;;;;;;24.80;68.60;;;;;;5135632;27;19923;-53
2021/07/26 04:21:30;;;;;;;;;;;24.80;68.70;;;;;;5133000;27;19953;-55
2021/07/26 04:23:57;;;;;;;;;;;24.70;68.60;;;;;;5132793;27;19974;-57
2021/07/26 04:26:27;;;;;;;;;;;24.80;68.60;;;;;;5132642;27;19923;-55
2021/07/26 04:28:54;;;;;;;;;;;24.80;68.50;;;;;;5132433;27;19927;-54
2021/07/26 04:31:21;;;;;;;;;;;24.80;68.50;;;;;;5135414;27;19985;-53
2021/07/26 04:33:48;;;;;;;;;;;24.80;68.50;;;;;;5115293;27;19927;-56
2021/07/26 04:36:15;;;;;;;;;;;24.80;68.50;;;;;;5130291;27;20423;-55
2021/07/26 04:38:42;;;;;;;;;;;24.80;68.50;;;;;;5134083;27;19977;-54
2021/07/26 04:41:09;;;;;;;;;;;24.80;68.50;;;;;;5134906;27;19924;-56
2021/07/26 04:43:36;;;;;;;;;;;24.80;68.50;;;;;;5132345;27;19924;-55
2021/07/26 04:46:04;;;;;;;;;;;24.80;68.50;;;;;;5132358;27;19953;-52
2021/07/26 04:48:32;;;;;;;;;;;24.80;68.40;;;;;;5133825;27;19976;-57
2021/07/26 04:50:59;;;;;;;;;;;24.90;68.50;;;;;;5133534;27;19930;-52
2021/07/26 04:53:26;;;;;;;;;;;24.90;69.20;;;;;;5116512;27;19931;-56
2021/07/26 04:55:53;;;;;;;;;;;24.90;68.40;;;;;;5134067;27;19985;-56
2021/07/26 04:58:20;;;;;;;;;;;24.90;68.30;;;;;;5134715;27;20276;-55
2021/07/26 05:00:47;;;;;;;;;;;24.90;68.30;;;;;;5118813;27;19927;-53
2021/07/26 05:03:14;;;;;;;;;;;24.90;68.30;;;;;;5129258;27;20340;-50
2021/07/26 05:05:41;;;;;;;;;;;24.90;68.30;;;;;;5134330;27;19986;-53
2021/07/26 05:08:08;;;;;;;;;;;24.90;68.40;;;;;;5121605;27;19973;-56
2021/07/26 05:10:35;;;;;;;;;;;24.90;69.10;;;;;;5115517;27;19927;-52
2021/07/26 05:13:02;;;;;;;;;;;24.90;68.40;;;;;;5127183;27;19962;-56
2021/07/26 05:15:29;;;;;;;;;;;24.90;68.20;;;;;;5132916;27;19924;-53
2021/07/26 05:17:56;;;;;;;;;;;25.00;68.30;;;;;;5134074;27;19927;-54
2021/07/26 05:20:23;;;;;;;;;;;25.00;68.30;;;;;;5133167;27;20387;-53
2021/07/26 05:22:50;;;;;;;;;;;25.00;68.30;;;;;;5132987;27;19935;-52
2021/07/26 05:25:19;;;;;;;;;;;25.00;68.20;;;;;;5132803;27;19999;-54
2021/07/26 05:27:46;;;;;;;;;;;25.00;68.10;;;;;;5132190;27;19976;-53
2021/07/26 05:30:13;;;;;;;;;;;25.00;68.10;;;;;;5133756;27;20116;-55
2021/07/26 05:32:40;;;;;;;;;;;25.00;68.10;;;;;;5132752;27;19984;-52
2021/07/26 05:35:07;;;;;;;;;;;25.10;67.90;;;;;;5132983;27;20010;-54
2021/07/26 05:37:35;;;;;;;;;;;25.10;68.00;;;;;;5116920;27;20374;-53
2021/07/26 05:40:02;;;;;;;;;;;25.10;67.90;;;;;;5132317;27;19982;-54
2021/07/26 05:42:29;;;;;;;;;;;25.10;67.70;;;;;;5132662;27;20335;-52
2021/07/26 05:44:56;;;;;;;;;;;25.10;67.60;;;;;;5132825;27;20383;-57
2021/07/26 05:47:23;;;;;;;;;;;25.20;67.60;;;;;;5133616;27;19994;-56
2021/07/26 05:49:50;;;;;;;;;;;25.20;67.50;;;;;;5132969;27;19931;-56
2021/07/26 05:52:17;;;;;;;;;;;25.20;67.40;;;;;;5117910;27;20325;-57
2021/07/26 05:54:44;;;;;;;;;;;25.30;67.40;;;;;;5112239;28;19988;-56
2021/07/26 05:57:13;;;;;;;;;;;25.30;67.40;;;;;;5131801;27;20365;-55
2021/07/26 05:59:40;;;;;;;;;;;25.30;67.40;;;;;;5132085;27;20018;-55
2021/07/26 06:02:07;;;;;;;;;;;25.30;67.40;;;;;;5114500;28;20003;-54
2021/07/26 06:04:34;;;;;;;;;;;25.30;67.30;;;;;;5131132;28;19949;-55
2021/07/26 06:07:01;;;;;;;;;;;25.30;67.10;;;;;;5131477;28;19988;-56
2021/07/26 06:09:28;;;;;;;;;;;25.40;67.00;;;;;;5133666;28;19928;-55
2021/07/26 06:11:56;;;;;;;;;;;25.40;67.10;;;;;;5131265;28;19930;-56
2021/07/26 06:14:24;;;;;;;;;;;25.40;66.90;;;;;;5132164;28;20320;-55
2021/07/26 06:16:52;;;;;;;;;;;25.40;67.00;;;;;;5133307;28;19927;-58
2021/07/26 06:19:20;;;;;;;;;;;25.40;66.90;;;;;;5132484;28;19924;-54
2021/07/26 06:21:48;;;;;;;;;;;25.50;66.90;;;;;;5133704;28;20022;-56
2021/07/26 06:24:15;;;;;;;;;;;25.40;67.30;;;;;;5130888;28;19963;-50
2021/07/26 06:26:43;;;;;;;;;;;25.50;67.00;;;;;;5133602;28;19987;-55
2021/07/26 06:29:10;;;;;;;;;;;25.50;66.80;;;;;;5115203;28;19924;-56
2021/07/26 06:31:37;;;;;;;;;;;25.50;66.80;;;;;;5133327;28;20308;-56
2021/07/26 06:34:05;;;;;;;;;;;25.40;66.80;;;;;;5133478;28;19972;-54
2021/07/26 06:36:32;;;;;;;;;;;25.40;66.80;;;;;;5121912;28;19959;-54
2021/07/26 06:38:59;;;;;;;;;;;25.50;66.80;;;;;;5131763;28;19959;-56
2021/07/26 06:41:26;;;;;;;;;;;25.50;66.80;;;;;;5133254;28;19923;-53
2021/07/26 06:43:54;;;;;;;;;;;25.40;66.80;;;;;;5113732;28;19924;-54
2021/07/26 06:46:21;;;;;;;;;;;25.50;66.80;;;;;;5131163;28;19924;-54
2021/07/26 06:48:48;;;;;;;;;;;25.50;66.90;;;;;;5131723;28;19969;-54
2021/07/26 06:51:15;;;;;;;;;;;25.50;66.60;;;;;;5131729;28;20014;-56
2021/07/26 06:53:42;;;;;;;;;;;25.60;66.60;;;;;;5132586;28;19924;-54
2021/07/26 06:56:10;;;;;;;;;;;25.60;66.40;;;;;;5130838;28;19923;-54
2021/07/26 06:58:38;;;;;;;;;;;25.60;66.30;;;;;;5130979;28;20375;-53
2021/07/26 07:01:06;;;;;;;;;;;25.60;66.20;;;;;;5130033;28;20378;-57
2021/07/26 07:03:33;;;;;;;;;;;25.60;66.10;;;;;;5132673;28;19949;-54
2021/07/26 07:06:04;;;;;;;;;;;25.70;66.10;;;;;;5130382;28;20390;-54
2021/07/26 07:08:31;;;;;;;;;;;25.70;66.00;;;;;;5131224;27;19946;-55
2021/07/26 07:11:05;;;;;;;;;;;25.70;65.90;;;;;;5118501;27;20007;-53
2021/07/26 07:13:35;;;;;;;;;;;25.70;65.80;;;;;;5136607;27;19923;-54
2021/07/26 07:16:07;;;;;;;;;;;25.80;65.80;;;;;;5117565;27;19953;-53
2021/07/26 07:18:34;;;;;;;;;;;25.80;65.70;;;;;;5136750;27;19930;-54
2021/07/26 07:21:01;;;;;;;;;;;25.90;65.70;;;;;;5135256;27;19930;-54
2021/07/26 07:23:28;;;;;;;;;;;25.90;65.60;;;;;;5134005;27;20002;-55
2021/07/26 07:25:55;;;;;;;;;;;25.90;65.70;;;;;;5136234;27;20014;-54
2021/07/26 07:28:22;;;;;;;;;;;26.00;65.50;;;;;;5132247;27;19953;-53
2021/07/26 07:30:49;;;;;;;;;;;26.00;65.40;;;;;;5120837;27;19985;-53
2021/07/26 07:33:16;;;;;;;;;;;26.00;65.30;;;;;;5116902;27;19932;-54
2021/07/26 07:35:43;;;;;;;;;;;26.10;65.00;;;;;;5134591;27;20047;-57
2021/07/26 07:38:10;;;;;;;;;;;26.20;65.00;;;;;;5135042;27;20237;-56
2021/07/26 07:40:37;;;;;;;;;;;26.20;65.00;;;;;;5118438;27;19967;-57
2021/07/26 07:43:05;;;;;;;;;;;26.20;64.80;;;;;;5135233;27;19966;-55
2021/07/26 07:45:32;;;;;;;;;;;26.30;64.50;;;;;;5135326;27;19924;-57
2021/07/26 07:47:59;;;;;;;;;;;26.30;64.50;;;;;;5136098;27;19967;-54
2021/07/26 07:50:26;;;;;;;;;;;26.20;64.60;;;;;;5133835;27;20023;-55
2021/07/26 07:52:53;;;;;;;;;;;26.20;64.50;;;;;;5135607;27;20010;-51
2021/07/26 07:55:21;;;;;;;;;;;26.20;64.50;;;;;;5134297;27;20362;-54
2021/07/26 07:57:51;;;;;;;;;;;26.20;65.40;;;;;;5131643;27;20018;-54
2021/07/26 08:00:18;;;;;;;;;;;26.20;64.50;;;;;;5135435;27;19927;-54
2021/07/26 08:02:45;;;;;;;;;;;26.30;64.50;;;;;;5134081;27;20387;-53
2021/07/26 08:05:14;;;;;;;;;;;26.30;64.30;;;;;;5134734;27;19972;-53
2021/07/26 08:07:41;;;;;;;;;;;26.40;64.10;;;;;;5135375;27;19982;-55
2021/07/26 08:10:09;;;;;;;;;;;26.50;64.10;;;;;;5133889;27;19923;-56
2021/07/26 08:12:36;;;;;;;;;;;26.60;63.90;;;;;;5135389;27;19952;-56
2021/07/26 08:15:03;;;;;;;;;;;26.60;63.50;;;;;;5135190;27;19973;-54
2021/07/26 08:17:30;;;;;;;;;;;26.70;63.30;;;;;;5134402;27;19931;-56
2021/07/26 08:19:57;;;;;;;;;;;26.60;63.40;;;;;;5128905;27;19923;-53
2021/07/26 08:22:24;;;;;;;;;;;26.70;63.40;;;;;;5118397;27;19924;-53
2021/07/26 08:24:52;;;;;;;;;;;26.70;63.40;;;;;;5118168;27;19924;-52
2021/07/26 08:27:19;;;;;;;;;;;26.70;63.40;;;;;;5120941;27;19931;-53
2021/07/26 08:29:46;;;;;;;;;;;26.70;63.50;;;;;;5113478;27;19930;-51
2021/07/26 08:32:13;;;;;;;;;;;26.70;63.60;;;;;;5116981;27;20329;-51
2021/07/26 08:34:40;;;;;;;;;;;26.70;63.40;;;;;;5116577;27;19959;-57
2021/07/26 08:37:07;;;;;;;;;;;26.60;63.40;;;;;;5116873;27;19924;-53
2021/07/26 08:39:37;;;;;;;;;;;26.70;63.60;;;;;;5133604;27;20382;-52
2021/07/26 08:42:06;;;;;;;;;;;26.70;63.60;;;;;;5132935;27;19923;-55
2021/07/26 08:44:33;;;;;;;;;;;26.70;63.40;;;;;;5132867;27;19924;-53
2021/07/26 08:47:02;;;;;;;;;;;26.70;63.40;;;;;;5135082;27;20338;-54
2021/07/26 08:49:31;;;;;;;;;;;26.80;63.30;;;;;;5131584;27;20006;-52
2021/07/26 08:51:58;;;;;;;;;;;26.80;63.30;;;;;;5133349;27;19924;-54
2021/07/26 08:54:28;;;;;;;;;;;26.80;63.10;;;;;;5132041;27;20340;-55
2021/07/26 08:56:55;;;;;;;;;;;26.90;62.80;;;;;;5133681;27;19927;-56
2021/07/26 08:59:21;;;;;;;;;;;27.00;63.00;;;;;;5115011;27;20382;-57
2021/07/26 09:01:50;;;;;;;;;;;27.00;62.80;;;;;;5133271;27;19923;-56
2021/07/26 09:04:18;;;;;;;;;;;27.00;62.80;;;;;;5134214;27;19923;-54
2021/07/26 09:06:46;;;;;;;;;;;27.00;62.90;;;;;;5133638;27;19927;-57
2021/07/26 09:09:13;;;;;;;;;;;27.00;62.80;;;;;;5133009;27;19932;-55
2021/07/26 09:11:44;;;;;;;;;;;27.00;62.90;;;;;;5133398;27;19924;-55
2021/07/26 09:14:31;;;;;;;;;;;27.00;62.90;;;;;;5124261;27;19952;-56
2021/07/26 09:16:58;;;;;;;;;;;27.00;63.10;;;;;;5127411;27;19927;-57
2021/07/26 09:19:25;;;;;;;;;;;27.00;62.90;;;;;;5123253;27;19924;-56
2021/07/26 09:21:53;;;;;;;;;;;27.00;63.10;;;;;;5117432;27;19955;-57
2021/07/26 09:24:25;;;;;;;;;;;27.00;62.90;;;;;;5125020;27;19930;-56
2021/07/26 09:26:54;;;;;;;;;;;27.00;63.10;;;;;;5132831;27;20010;-56
2021/07/26 09:29:24;;;;;;;;;;;26.90;63.00;;;;;;5115843;27;19924;-54
2021/07/26 09:32:02;;;;;;;;;;;27.00;63.30;;;;;;5132452;27;19931;-52
2021/07/26 09:34:29;;;;;;;;;;;27.00;63.10;;;;;;5132743;27;20379;-53
2021/07/26 09:36:56;;;;;;;;;;;27.00;63.00;;;;;;5124322;27;20329;-54
2021/07/26 09:39:26;;;;;;;;;;;27.10;63.00;;;;;;5132740;27;19923;-53
2021/07/26 09:41:55;;;;;;;;;;;27.10;62.80;;;;;;5133862;27;19969;-54
2021/07/26 09:44:25;;;;;;;;;;;27.10;62.80;;;;;;5132678;27;20382;-57
2021/07/26 09:46:53;;;;;;;;;;;27.20;62.80;;;;;;5132628;27;20030;-55
2021/07/26 09:49:21;;;;;;;;;;;27.20;62.70;;;;;;5132467;27;20392;-55
2021/07/26 09:52:04;;;;;;;;;;;27.30;62.60;;;;;;5132684;27;19973;-51
2021/07/26 09:54:42;;;;;;;;;;;27.30;62.50;;;;;;5131004;27;19993;-53
2021/07/26 09:57:15;;;;;;;;;;;27.20;62.50;;;;;;5113036;27;19952;-54
2021/07/26 09:59:44;;;;;;;;;;;27.30;62.20;;;;;;5133822;27;19968;-54
2021/07/26 10:02:18;;;;;;;;;;;27.30;62.20;;;;;;5133386;27;19923;-53
2021/07/26 10:04:48;;;;;;;;;;;27.30;62.40;;;;;;5133829;28;19923;-56
2021/07/26 10:07:16;;;;;;;;;;;27.30;62.40;;;;;;5133495;28;19993;-56
2021/07/26 10:09:44;;;;;;;;;;;27.40;62.50;;;;;;5114154;28;19942;-56
2021/07/26 10:12:14;;;;;;;;;;;27.30;62.60;;;;;;5133953;28;19928;-51
2021/07/26 10:14:41;;;;;;;;;;;27.30;62.30;;;;;;5132042;28;20119;-53
2021/07/26 10:17:08;;;;;;;;;;;27.40;62.50;;;;;;5114141;28;19978;-54
2021/07/26 10:19:36;;;;;;;;;;;27.30;62.40;;;;;;5133510;28;19923;-53
2021/07/26 10:22:03;;;;;;;;;;;27.40;63.20;;;;;;5133121;28;20391;-57
2021/07/26 10:24:34;;;;;;;;;;;27.40;62.60;;;;;;5133499;28;19998;-53
2021/07/26 10:27:02;;;;;;;;;;;27.40;62.20;;;;;;5133275;28;19924;-56
2021/07/26 10:29:47;;;;;;;;;;;27.40;62.50;;;;;;5130893;28;20011;-54
2021/07/26 10:32:26;;;;;;;;;;;27.30;62.40;;;;;;5114647;28;20411;-53
2021/07/26 10:34:58;;;;;;;;;;;27.30;62.30;;;;;;5132452;28;19939;-55
2021/07/26 10:37:36;;;;;;;;;;;27.30;62.70;;;;;;5132313;28;19930;-55
2021/07/26 10:40:22;;;;;;;;;;;27.20;62.90;;;;;;5132437;28;19981;-54
2021/07/26 10:42:53;;;;;;;;;;;27.20;62.70;;;;;;5133204;27;19963;-50
2021/07/26 10:45:35;;;;;;;;;;;27.20;62.80;;;;;;5135712;27;20394;-49
2021/07/26 10:48:30;;;;;;;;;;;27.10;63.30;;;;;;5119607;27;19931;-53
2021/07/26 10:50:59;;;;;;;;;;;27.10;63.20;;;;;;5121525;27;20419;-55
2021/07/26 10:53:32;;;;;;;;;;;27.10;63.10;;;;;;5135813;27;19931;-54
2021/07/26 10:56:01;;;;;;;;;;;27.10;63.40;;;;;;5135432;27;19924;-51
2021/07/26 10:58:37;;;;;;;;;;;27.10;63.40;;;;;;5135341;27;19931;-52
2021/07/26 11:01:20;;;;;;;;;;;27.00;63.40;;;;;;5137247;27;19930;-53
2021/07/26 11:03:50;;;;;;;;;;;27.00;63.60;;;;;;5118807;27;20010;-51
2021/07/26 11:06:41;;;;;;;;;;;27.00;63.60;;;;;;5136569;27;19972;-52
2021/07/26 11:09:20;;;;;;;;;;;27.00;63.70;;;;;;5136651;27;19970;-54
2021/07/26 11:11:49;;;;;;;;;;;26.90;63.90;;;;;;5112262;28;19976;-56
2021/07/26 11:14:15;;;;;;;;;;;26.90;64.20;;;;;;5123734;27;19974;-52
2021/07/26 11:16:49;;;;;;;;;;;26.90;64.20;;;;;;5135021;27;19932;-53
2021/07/26 11:19:31;;;;;;;;;;;26.80;64.20;;;;;;5135041;27;20210;-53
2021/07/26 11:21:59;;;;;;;;;;;26.80;64.40;;;;;;5134863;27;19988;-54
2021/07/26 11:24:41;;;;;;;;;;;26.90;64.70;;;;;;5135589;27;19923;-54
2021/07/26 11:27:13;;;;;;;;;;;26.90;64.60;;;;;;5135401;27;20006;-53
2021/07/26 11:29:58;;;;;;;;;;;26.90;65.10;;;;;;5136385;27;20014;-54
2021/07/26 11:32:26;;;;;;;;;;;26.90;64.70;;;;;;5135134;27;19929;-56
2021/07/26 11:34:55;;;;;;;;;;;26.90;64.20;;;;;;5136070;27;19968;-56
2021/07/26 11:37:28;;;;;;;;;;;27.00;64.20;;;;;;5122305;27;20014;-56
2021/07/26 11:39:58;;;;;;;;;;;27.00;63.80;;;;;;5136132;27;20072;-54
2021/07/26 11:42:25;;;;;;;;;;;27.00;64.80;;;;;;5135050;27;19923;-55
2021/07/26 11:44:52;;;;;;;;;;;27.00;64.40;;;;;;5135411;27;19924;-54
2021/07/26 11:47:39;;;;;;;;;;;27.00;64.70;;;;;;5135821;27;19972;-55
2021/07/26 11:50:10;;;;;;;;;;;27.00;64.50;;;;;;5136028;27;19955;-53
2021/07/26 11:52:49;;;;;;;;;;;27.00;64.30;;;;;;5131664;27;20034;-54
2021/07/26 11:55:16;;;;;;;;;;;27.10;64.90;;;;;;5117436;27;20456;-53
2021/07/26 11:57:53;;;;;;;;;;;27.10;64.70;;;;;;5121402;27;20035;-55
2021/07/26 12:00:27;;;;;;;;;;;27.10;64.50;;;;;;5135970;27;19964;-56
2021/07/26 12:02:55;;;;;;;;;;;27.10;64.80;;;;;;5135533;27;19950;-52
2021/07/26 12:05:29;;;;;;;;;;;27.10;64.50;;;;;;5136249;27;19930;-57
2021/07/26 12:07:57;;;;;;;;;;;27.00;64.40;;;;;;5136020;27;19928;-56
2021/07/26 12:10:32;;;;;;;;;;;27.00;64.40;;;;;;5133235;27;20335;-53
2021/07/26 12:13:06;;;;;;;;;;;27.00;64.00;;;;;;5118747;27;19924;-52
2021/07/26 12:15:34;;;;;;;;;;;27.00;63.90;;;;;;5134178;27;20017;-52
2021/07/26 12:18:08;;;;;;;;;;;27.00;63.80;;;;;;5133785;27;20375;-55
2021/07/26 12:20:37;;;;;;;;;;;27.10;63.80;;;;;;5135531;27;19963;-54
2021/07/26 12:23:14;;;;;;;;;;;27.10;63.80;;;;;;5135135;27;20427;-53
2021/07/26 12:25:47;;;;;;;;;;;27.10;63.70;;;;;;5117051;27;19923;-55
2021/07/26 12:28:15;;;;;;;;;;;27.20;63.80;;;;;;5118395;27;19973;-54
2021/07/26 12:30:43;;;;;;;;;;;27.20;63.60;;;;;;5116732;27;19966;-53
2021/07/26 12:33:12;;;;;;;;;;;27.20;63.60;;;;;;5135540;27;19992;-55
2021/07/26 12:35:40;;;;;;;;;;;27.20;63.50;;;;;;5131968;27;19923;-53
2021/07/26 12:38:19;;;;;;;;;;;27.20;63.50;;;;;;5134167;27;20014;-53
2021/07/26 12:40:47;;;;;;;;;;;27.20;63.60;;;;;;5134632;27;19998;-55
2021/07/26 12:43:18;;;;;;;;;;;27.20;63.50;;;;;;5134446;27;20466;-57
2021/07/26 12:46:02;;;;;;;;;;;27.20;64.30;;;;;;5133609;27;20299;-55
2021/07/26 12:48:30;;;;;;;;;;;27.20;63.50;;;;;;5135011;27;20370;-56
2021/07/26 12:50:58;;;;;;;;;;;27.20;63.50;;;;;;5134016;27;19950;-55
2021/07/26 12:53:26;;;;;;;;;;;27.10;63.50;;;;;;5133481;27;19923;-56
2021/07/26 12:55:53;;;;;;;;;;;27.10;63.50;;;;;;5133369;27;20438;-53
2021/07/26 12:58:22;;;;;;;;;;;27.10;63.60;;;;;;5131793;27;19923;-55
2021/07/26 13:00:51;;;;;;;;;;;27.10;63.60;;;;;;5134417;27;19924;-53
2021/07/26 13:03:20;;;;;;;;;;;27.10;63.60;;;;;;5132429;27;20200;-55
2021/07/26 13:05:50;;;;;;;;;;;27.10;63.80;;;;;;5133224;27;20050;-55
2021/07/26 13:08:18;;;;;;;;;;;27.10;64.30;;;;;;5134258;27;20011;-54
2021/07/26 13:10:47;;;;;;;;;;;27.10;64.30;;;;;;5132868;27;19928;-56
2021/07/26 13:13:15;;;;;;;;;;;27.10;64.40;;;;;;5133012;27;19937;-52
2021/07/26 13:15:43;;;;;;;;;;;27.10;64.30;;;;;;5132742;27;19972;-51
2021/07/26 13:18:13;;;;;;;;;;;27.10;64.40;;;;;;5133096;27;19966;-55
2021/07/26 13:20:41;;;;;;;;;;;27.10;64.30;;;;;;5134750;27;19985;-56
2021/07/26 13:23:08;;;;;;;;;;;27.10;64.30;;;;;;5133268;27;19962;-52
2021/07/26 13:25:37;;;;;;;;;;;27.10;64.30;;;;;;5126534;27;19969;-55
2021/07/26 13:28:05;;;;;;;;;;;27.10;64.60;;;;;;5121596;27;19927;-56
2021/07/26 13:30:32;;;;;;;;;;;27.10;64.70;;;;;;5134067;27;19973;-57
2021/07/26 13:32:59;;;;;;;;;;;27.10;64.50;;;;;;5134122;27;20010;-56
2021/07/26 13:35:26;;;;;;;;;;;27.10;64.50;;;;;;5112284;28;20014;-56
2021/07/26 13:37:53;;;;;;;;;;;27.10;64.40;;;;;;5118364;27;19928;-53
2021/07/26 13:40:21;;;;;;;;;;;27.10;64.40;;;;;;5134235;27;19923;-54
2021/07/26 13:42:47;;;;;;;;;;;27.10;64.30;;;;;;5134055;27;19998;-55
2021/07/26 13:45:15;;;;;;;;;;;27.10;64.20;;;;;;5131408;27;20433;-57
2021/07/26 13:47:42;;;;;;;;;;;27.10;64.20;;;;;;5132430;27;19931;-52
2021/07/26 13:50:09;;;;;;;;;;;27.10;64.10;;;;;;5131551;27;19924;-54
2021/07/26 13:52:36;;;;;;;;;;;27.10;64.10;;;;;;5133225;27;20011;-56
2021/07/26 13:55:04;;;;;;;;;;;27.10;64.80;;;;;;5133849;27;19963;-55
2021/07/26 13:57:31;;;;;;;;;;;27.10;64.10;;;;;;5133842;27;19924;-54
2021/07/26 13:59:58;;;;;;;;;;;27.10;64.10;;;;;;5132426;27;19924;-55
2021/07/26 14:02:25;;;;;;;;;;;27.10;64.00;;;;;;5132510;27;19966;-55
2021/07/26 14:04:54;;;;;;;;;;;27.20;64.10;;;;;;5132600;27;19945;-58
2021/07/26 14:07:21;;;;;;;;;;;27.20;64.00;;;;;;5133732;28;20399;-52
2021/07/26 14:09:48;;;;;;;;;;;27.20;64.00;;;;;;5121127;28;20411;-54
2021/07/26 14:12:15;;;;;;;;;;;27.20;63.90;;;;;;5128436;28;19959;-54
2021/07/26 14:14:42;;;;;;;;;;;27.20;63.90;;;;;;5123056;28;19928;-57
2021/07/26 14:17:09;;;;;;;;;;;27.20;63.90;;;;;;5123468;27;19976;-51
2021/07/26 14:19:48;;;;;;;;;;;27.20;63.80;;;;;;5137545;27;20015;-56
2021/07/26 14:22:18;;;;;;;;;;;27.20;63.80;;;;;;5135340;27;19924;-54
2021/07/26 14:24:46;;;;;;;;;;;27.20;63.90;;;;;;5136906;27;19924;-53
2021/07/26 14:27:13;;;;;;;;;;;27.20;63.80;;;;;;5135121;27;19966;-53
2021/07/26 14:29:40;;;;;;;;;;;27.20;63.80;;;;;;5135417;27;20071;-55